createdAt,value
2023-04-16T00:01:35.724Z,83.49
2023-04-16T00:04:02.826Z,82.89
2023-04-16T00:06:30.054Z,83.14
2023-04-16T00:08:56.620Z,83.30
2023-04-16T00:11:23.433Z,83.13
2023-04-16T00:13:50.176Z,83.15
2023-04-16T00:16:16.908Z,83.26
2023-04-16T00:18:43.535Z,83.30
2023-04-16T00:21:10.530Z,83.25
2023-04-16T00:23:37.939Z,82.85
2023-04-16T00:26:04.810Z,82.93
2023-04-16T00:28:31.666Z,83.26
2023-04-16T00:31:01.234Z,82.77
2023-04-16T00:33:30.123Z,83.18
2023-04-16T00:35:56.808Z,82.77
2023-04-16T00:38:23.430Z,82.66
2023-04-16T00:40:50.187Z,82.83
2023-04-16T00:43:26.212Z,83.23
2023-04-16T00:45:54.138Z,82.82
2023-04-16T00:48:21.085Z,82.90
2023-04-16T00:50:48.739Z,83.04
2023-04-16T00:53:15.580Z,82.70
2023-04-16T00:55:42.319Z,82.75
2023-04-16T00:58:09.132Z,82.92
2023-04-16T01:00:35.731Z,82.45
2023-04-16T01:03:02.793Z,82.94
2023-04-16T01:05:30.557Z,82.58
2023-04-16T01:07:59.991Z,83.04
2023-04-16T01:10:26.881Z,82.46
2023-04-16T01:12:53.640Z,82.51
2023-04-16T01:15:20.288Z,82.72
2023-04-16T01:17:47.285Z,82.47
2023-04-16T01:20:14.626Z,82.42
2023-04-16T01:22:41.192Z,82.61
2023-04-16T01:25:07.964Z,82.75
2023-04-16T01:27:34.709Z,82.44
2023-04-16T01:30:01.287Z,82.90
2023-04-16T01:32:28.088Z,82.86
2023-04-16T01:34:54.790Z,82.88
2023-04-16T01:37:21.420Z,82.79
2023-04-16T01:39:48.161Z,82.48
2023-04-16T01:42:14.963Z,82.70
2023-04-16T01:44:41.507Z,82.52
2023-04-16T01:47:08.574Z,82.90
2023-04-16T01:49:36.156Z,82.47
2023-04-16T01:52:02.689Z,82.52
2023-04-16T01:54:29.330Z,82.61
2023-04-16T01:56:56.007Z,82.54
2023-04-16T01:59:22.661Z,82.61
2023-04-16T02:01:49.332Z,82.82
2023-04-16T02:04:16.552Z,83.28
2023-04-16T02:06:43.204Z,83.10
2023-04-16T02:09:09.958Z,83.30
2023-04-16T02:11:36.735Z,83.14
2023-04-16T02:14:03.297Z,82.85
2023-04-16T02:16:30.030Z,83.20
2023-04-16T02:18:56.658Z,83.15
2023-04-16T02:21:23.191Z,83.16
2023-04-16T02:23:51.851Z,83.12
2023-04-16T02:26:18.823Z,83.25
2023-04-16T02:28:45.498Z,83.02
2023-04-16T02:31:12.233Z,82.91
2023-04-16T02:33:39.056Z,82.78
2023-04-16T02:36:06.031Z,83.34
2023-04-16T02:38:32.813Z,83.29
2023-04-16T02:40:59.718Z,83.03
2023-04-16T02:43:26.299Z,83.47
2023-04-16T02:45:52.998Z,83.07
2023-04-16T02:48:19.705Z,83.07
2023-04-16T02:50:46.276Z,83.09
2023-04-16T02:53:12.986Z,82.85
2023-04-16T02:55:40.632Z,83.38
2023-04-16T02:58:07.250Z,83.09
2023-04-16T03:00:33.935Z,83.32
2023-04-16T03:03:00.846Z,83.40
2023-04-16T03:05:27.575Z,83.63
2023-04-16T03:07:56.805Z,83.16
2023-04-16T03:10:24.283Z,83.00
2023-04-16T03:12:50.932Z,83.13
2023-04-16T03:15:17.791Z,82.98
2023-04-16T03:17:44.582Z,82.92
2023-04-16T03:20:11.514Z,83.40
2023-04-16T03:22:39.677Z,83.23
2023-04-16T03:25:07.993Z,82.96
2023-04-16T03:27:35.117Z,83.00
2023-04-16T03:30:02.310Z,83.51
2023-04-16T03:32:29.069Z,83.21
2023-04-16T03:34:55.631Z,83.35
2023-04-16T03:37:22.991Z,83.09
2023-04-16T03:39:49.745Z,83.37
2023-04-16T03:42:16.498Z,83.50
2023-04-16T03:44:43.127Z,83.26
2023-04-16T03:47:09.809Z,83.49
2023-04-16T03:49:36.406Z,83.36
2023-04-16T03:52:03.216Z,83.81
2023-04-16T03:54:29.896Z,83.35
2023-04-16T03:56:57.100Z,83.29
2023-04-16T03:59:23.762Z,83.10
2023-04-16T04:01:50.949Z,83.66
2023-04-16T04:04:17.830Z,83.63
2023-04-16T04:06:46.660Z,83.44
2023-04-16T04:09:14.153Z,83.72
2023-04-16T04:11:40.844Z,83.55
2023-04-16T04:14:07.612Z,83.29
2023-04-16T04:16:35.041Z,83.31
2023-04-16T04:19:01.957Z,83.15
2023-04-16T04:21:29.352Z,83.36
2023-04-16T04:23:56.229Z,83.69
2023-04-16T04:26:22.962Z,83.81
2023-04-16T04:28:49.792Z,83.18
2023-04-16T04:31:16.613Z,83.59
2023-04-16T04:33:43.242Z,83.38
2023-04-16T04:36:09.955Z,83.10
2023-04-16T04:38:36.683Z,83.23
2023-04-16T04:41:03.310Z,83.30
2023-04-16T04:43:29.935Z,83.71
2023-04-16T04:45:56.613Z,83.31
2023-04-16T04:48:26.577Z,83.45
2023-04-16T04:50:53.904Z,83.75
2023-04-16T04:53:20.825Z,83.44
2023-04-16T04:55:50.842Z,83.70
2023-04-16T04:58:18.876Z,83.15
2023-04-16T05:00:45.527Z,83.71
2023-04-16T05:03:12.643Z,83.49
2023-04-16T05:05:41.016Z,83.63
2023-04-16T05:08:08.098Z,83.38
2023-04-16T05:10:34.733Z,83.32
2023-04-16T05:13:01.802Z,83.53
2023-04-16T05:15:28.696Z,83.50
2023-04-16T05:17:56.296Z,83.43
2023-04-16T05:20:26.132Z,83.27
2023-04-16T05:22:53.031Z,83.01
2023-04-16T05:25:19.615Z,83.06
2023-04-16T05:27:46.259Z,83.13
2023-04-16T05:30:13.134Z,82.67
2023-04-16T05:32:41.193Z,83.05
2023-04-16T05:35:08.379Z,83.24
2023-04-16T05:37:35.046Z,82.73
2023-04-16T05:40:01.647Z,82.65
2023-04-16T05:42:28.276Z,82.67
2023-04-16T05:44:55.066Z,82.68
2023-04-16T05:47:22.011Z,82.58
2023-04-16T05:49:48.609Z,82.68
2023-04-16T05:52:15.456Z,82.70
2023-04-16T05:54:42.040Z,82.46
2023-04-16T05:57:08.942Z,82.96
2023-04-16T05:59:35.687Z,82.78
2023-04-16T06:02:02.345Z,82.69
2023-04-16T06:04:30.986Z,83.03
2023-04-16T06:06:57.730Z,82.57
2023-04-16T06:09:24.841Z,82.93
2023-04-16T06:11:51.539Z,82.47
2023-04-16T06:14:18.278Z,82.80
2023-04-16T06:16:44.889Z,82.86
2023-04-16T06:19:11.729Z,82.83
2023-04-16T06:21:38.611Z,82.54
2023-04-16T06:24:05.738Z,82.82
2023-04-16T06:26:32.380Z,82.52
2023-04-16T06:28:59.295Z,82.35
2023-04-16T06:31:26.394Z,82.51
2023-04-16T06:33:52.980Z,82.29
2023-04-16T06:36:19.682Z,82.23
2023-04-16T06:38:46.553Z,82.71
2023-04-16T06:41:14.271Z,82.35
2023-04-16T06:43:41.148Z,82.73
2023-04-16T06:46:07.765Z,82.26
2023-04-16T06:48:34.434Z,82.47
2023-04-16T06:51:01.453Z,82.72
2023-04-16T06:53:28.428Z,82.29
2023-04-16T06:55:55.027Z,82.45
2023-04-16T06:58:22.663Z,82.64
2023-04-16T07:00:49.364Z,82.34
2023-04-16T07:03:16.309Z,82.23
2023-04-16T07:05:43.067Z,82.71
2023-04-16T07:08:09.902Z,82.22
2023-04-16T07:10:36.588Z,82.36
2023-04-16T07:13:03.330Z,82.50
2023-04-16T07:15:29.983Z,82.30
2023-04-16T07:17:56.680Z,81.70
2023-04-16T07:20:23.553Z,81.72
2023-04-16T07:22:50.350Z,82.10
2023-04-16T07:25:16.942Z,81.77
2023-04-16T07:27:43.815Z,81.73
2023-04-16T07:30:10.822Z,82.00
2023-04-16T07:32:37.474Z,81.42
2023-04-16T07:35:04.464Z,81.54
2023-04-16T07:37:31.348Z,81.91
2023-04-16T07:39:57.975Z,81.77
2023-04-16T07:42:24.810Z,81.37
2023-04-16T07:44:51.427Z,81.28
2023-04-16T07:47:18.037Z,81.31
2023-04-16T07:49:44.860Z,81.27
2023-04-16T07:52:12.010Z,80.97
2023-04-16T07:54:38.748Z,81.30
2023-04-16T07:57:05.808Z,80.62
2023-04-16T07:59:32.512Z,80.87
2023-04-16T08:01:59.393Z,80.63
2023-04-16T08:04:26.628Z,80.85
2023-04-16T08:06:54.412Z,80.37
2023-04-16T08:09:22.316Z,80.61
2023-04-16T08:11:50.024Z,80.31
2023-04-16T08:14:17.452Z,79.96
2023-04-16T08:16:44.203Z,80.03
2023-04-16T08:19:11.205Z,79.97
2023-04-16T08:21:37.941Z,79.78
2023-04-16T08:24:04.558Z,79.78
2023-04-16T08:26:31.272Z,80.10
2023-04-16T08:28:57.898Z,79.60
2023-04-16T08:31:24.722Z,79.74
2023-04-16T08:33:51.714Z,79.79
2023-04-16T08:36:18.428Z,79.96
2023-04-16T08:38:45.089Z,79.55
2023-04-16T08:41:13.673Z,79.23
2023-04-16T08:43:45.406Z,79.25
2023-04-16T08:46:12.872Z,78.78
2023-04-16T08:48:43.445Z,78.34
2023-04-16T08:51:11.220Z,78.09
2023-04-16T08:53:55.725Z,78.22
2023-04-16T08:56:24.661Z,77.97
2023-04-16T08:58:53.835Z,77.73
2023-04-16T09:01:20.994Z,77.31
2023-04-16T09:03:48.753Z,77.12
2023-04-16T09:06:16.738Z,76.37
2023-04-16T09:08:49.364Z,76.06
2023-04-16T09:11:19.806Z,76.04
2023-04-16T09:13:47.249Z,75.40
2023-04-16T09:16:15.532Z,75.25
2023-04-16T09:18:42.364Z,74.83
2023-04-16T09:21:12.928Z,75.04
2023-04-16T09:23:40.659Z,74.31
2023-04-16T09:26:07.566Z,74.23
2023-04-16T09:28:45.520Z,73.69
2023-04-16T09:31:19.554Z,73.22
2023-04-16T09:34:12.538Z,72.76
2023-04-16T09:36:39.212Z,72.68
2023-04-16T09:39:05.837Z,73.09
2023-04-16T09:41:39.907Z,72.11
2023-04-16T09:44:06.742Z,72.00
2023-04-16T09:46:41.067Z,71.60
2023-04-16T09:49:14.051Z,71.28
2023-04-16T09:51:46.968Z,70.79
2023-04-16T09:54:13.835Z,70.52
2023-04-16T09:56:42.652Z,70.31
2023-04-16T09:59:18.027Z,69.28
2023-04-16T10:01:47.168Z,69.36
2023-04-16T10:04:13.871Z,68.67
2023-04-16T10:06:40.890Z,68.52
2023-04-16T10:09:09.448Z,67.71
2023-04-16T10:11:37.306Z,67.27
2023-04-16T10:14:04.468Z,66.63
2023-04-16T10:16:32.321Z,66.76
2023-04-16T10:18:59.525Z,66.20
2023-04-16T10:21:34.023Z,65.75
2023-04-16T10:24:01.770Z,65.11
2023-04-16T10:26:30.903Z,64.98
2023-04-16T10:28:58.799Z,64.73
2023-04-16T10:31:27.384Z,64.24
2023-04-16T10:33:55.321Z,64.16
2023-04-16T10:36:29.340Z,63.81
2023-04-16T10:39:00.763Z,63.45
2023-04-16T10:41:27.729Z,62.90
2023-04-16T10:44:11.270Z,62.12
2023-04-16T10:46:43.140Z,61.73
2023-04-16T10:49:19.959Z,61.17
2023-04-16T10:51:59.702Z,60.64
2023-04-16T10:54:31.167Z,60.70
2023-04-16T10:57:00.800Z,60.24
2023-04-16T10:59:37.170Z,59.65
2023-04-16T11:02:09.127Z,59.67
2023-04-16T11:04:37.632Z,59.67
2023-04-16T11:07:19.732Z,59.91
2023-04-16T11:10:00.268Z,59.99
2023-04-16T11:12:33.074Z,59.37
2023-04-16T11:15:08.869Z,59.29
2023-04-16T11:17:57.941Z,59.41
2023-04-16T11:20:26.754Z,58.97
2023-04-16T11:22:55.436Z,58.98
2023-04-16T11:25:23.925Z,59.28
2023-04-16T11:27:51.310Z,59.67
2023-04-16T11:30:19.086Z,60.28
2023-04-16T11:32:47.146Z,60.52
2023-04-16T11:35:18.814Z,60.72
2023-04-16T11:37:46.339Z,60.44
2023-04-16T11:40:13.173Z,60.37
2023-04-16T11:42:41.588Z,60.65
2023-04-16T11:45:11.020Z,61.27
2023-04-16T11:47:44.876Z,60.60
2023-04-16T11:50:20.602Z,60.48
2023-04-16T11:52:48.316Z,60.63
2023-04-16T11:55:15.510Z,61.39
2023-04-16T11:57:42.257Z,61.90
2023-04-16T12:00:14.065Z,61.89
2023-04-16T12:02:43.918Z,61.82
2023-04-16T12:05:31.498Z,62.01
2023-04-16T12:07:59.643Z,61.87
2023-04-16T12:10:27.095Z,62.20
2023-04-16T12:12:53.937Z,62.17
2023-04-16T12:15:20.681Z,62.42
2023-04-16T12:17:48.804Z,61.84
2023-04-16T12:20:16.328Z,62.42
2023-04-16T12:22:47.731Z,63.17
2023-04-16T12:25:16.801Z,63.30
2023-04-16T12:27:56.022Z,63.25
2023-04-16T12:30:24.456Z,63.02
2023-04-16T12:32:53.587Z,62.89
2023-04-16T12:35:34.183Z,63.26
2023-04-16T12:38:01.546Z,63.54
2023-04-16T12:40:28.323Z,63.34
2023-04-16T12:42:55.652Z,63.37
2023-04-16T12:45:22.512Z,63.16
2023-04-16T12:47:50.528Z,63.42
2023-04-16T12:50:17.853Z,63.07
2023-04-16T12:52:44.729Z,63.05
2023-04-16T12:55:12.525Z,63.43
2023-04-16T12:57:39.365Z,62.91
2023-04-16T13:00:06.813Z,62.35
2023-04-16T13:02:34.207Z,62.47
2023-04-16T13:05:01.716Z,62.27
2023-04-16T13:07:29.050Z,61.68
2023-04-16T13:09:55.780Z,61.99
2023-04-16T13:12:22.937Z,61.60
2023-04-16T13:14:49.594Z,61.32
2023-04-16T13:17:16.274Z,61.42
2023-04-16T13:19:43.389Z,61.01
2023-04-16T13:22:10.082Z,61.35
2023-04-16T13:24:36.829Z,61.76
2023-04-16T13:27:03.720Z,61.94
2023-04-16T13:29:30.839Z,62.28
2023-04-16T13:31:57.595Z,62.10
2023-04-16T13:34:24.366Z,61.84
2023-04-16T13:36:50.988Z,62.21
2023-04-16T13:39:18.271Z,62.42
2023-04-16T13:41:45.349Z,62.13
2023-04-16T13:44:12.015Z,62.31
2023-04-16T13:46:38.655Z,62.17
2023-04-16T13:49:05.604Z,62.16
2023-04-16T13:51:32.465Z,61.81
2023-04-16T13:53:59.115Z,62.32
2023-04-16T13:56:26.191Z,61.90
2023-04-16T13:58:52.946Z,61.93
2023-04-16T14:01:19.834Z,62.17
2023-04-16T14:03:47.788Z,62.09
2023-04-16T14:06:15.084Z,61.63
2023-04-16T14:08:41.685Z,61.74
2023-04-16T14:11:09.419Z,61.52
2023-04-16T14:13:36.580Z,61.31
2023-04-16T14:16:03.305Z,61.31
2023-04-16T14:18:30.233Z,60.99
2023-04-16T14:20:57.616Z,60.63
2023-04-16T14:23:24.211Z,61.23
2023-04-16T14:25:51.125Z,60.64
2023-04-16T14:28:17.786Z,61.24
2023-04-16T14:30:44.529Z,60.88
2023-04-16T14:33:11.578Z,61.28
2023-04-16T14:35:38.192Z,61.30
2023-04-16T14:38:04.811Z,61.56
2023-04-16T14:40:31.728Z,61.09
2023-04-16T14:42:58.326Z,61.07
2023-04-16T14:45:29.000Z,61.10
2023-04-16T14:47:56.057Z,61.02
2023-04-16T14:50:22.878Z,61.15
2023-04-16T14:52:50.826Z,61.54
2023-04-16T14:55:18.663Z,62.04
2023-04-16T14:57:45.461Z,62.37
2023-04-16T15:00:13.497Z,61.92
2023-04-16T15:02:40.726Z,62.39
2023-04-16T15:05:10.174Z,62.91
2023-04-16T15:07:37.160Z,62.74
2023-04-16T15:10:04.549Z,62.46
2023-04-16T15:12:31.296Z,62.26
2023-04-16T15:14:59.827Z,62.49
2023-04-16T15:17:26.886Z,62.28
2023-04-16T15:19:53.659Z,62.62
2023-04-16T15:22:20.317Z,62.54
2023-04-16T15:24:47.286Z,62.43
2023-04-16T15:27:14.753Z,62.67
2023-04-16T15:29:41.369Z,62.88
2023-04-16T15:32:08.317Z,62.41
2023-04-16T15:34:34.934Z,62.61
2023-04-16T15:37:01.702Z,62.98
2023-04-16T15:39:28.825Z,62.96
2023-04-16T15:42:01.553Z,63.15
2023-04-16T15:44:31.089Z,63.52
2023-04-16T15:46:57.863Z,63.52
2023-04-16T15:49:24.836Z,63.73
2023-04-16T15:51:52.599Z,63.60
2023-04-16T15:54:19.287Z,63.25
2023-04-16T15:56:46.700Z,63.42
2023-04-16T15:59:13.785Z,64.02
2023-04-16T16:01:40.848Z,63.97
2023-04-16T16:04:08.206Z,63.86
2023-04-16T16:06:35.835Z,64.33
2023-04-16T16:09:02.513Z,64.19
2023-04-16T16:11:29.146Z,64.48
2023-04-16T16:13:55.935Z,65.03
2023-04-16T16:16:22.672Z,64.34
2023-04-16T16:18:49.413Z,64.65
2023-04-16T16:21:16.867Z,64.57
2023-04-16T16:23:43.491Z,64.57
2023-04-16T16:26:10.067Z,65.17
2023-04-16T16:28:38.165Z,64.97
2023-04-16T16:31:06.047Z,64.86
2023-04-16T16:33:33.297Z,65.18
2023-04-16T16:36:00.168Z,65.60
2023-04-16T16:38:27.122Z,65.75
2023-04-16T16:40:53.736Z,65.76
2023-04-16T16:43:20.820Z,66.35
2023-04-16T16:45:47.522Z,66.78
2023-04-16T16:48:14.299Z,66.79
2023-04-16T16:50:41.177Z,66.81
2023-04-16T16:53:07.826Z,67.33
2023-04-16T16:55:35.558Z,67.46
2023-04-16T16:58:02.773Z,67.79
2023-04-16T17:00:29.387Z,67.96
2023-04-16T17:02:56.299Z,68.09
2023-04-16T17:05:23.336Z,68.16
2023-04-16T17:07:50.028Z,68.73
2023-04-16T17:10:20.438Z,68.69
2023-04-16T17:12:48.469Z,68.41
2023-04-16T17:15:15.745Z,68.96
2023-04-16T17:17:42.957Z,69.27
2023-04-16T17:20:10.981Z,69.51
2023-04-16T17:22:39.113Z,69.52
2023-04-16T17:25:09.966Z,69.56
2023-04-16T17:27:37.009Z,69.97
2023-04-16T17:30:05.430Z,69.95
2023-04-16T17:32:33.005Z,70.11
2023-04-16T17:35:01.528Z,70.36
2023-04-16T17:37:28.809Z,70.59
2023-04-16T17:39:55.531Z,70.76
2023-04-16T17:42:22.369Z,70.93
2023-04-16T17:44:48.984Z,70.89
2023-04-16T17:47:15.583Z,71.10
2023-04-16T17:49:42.774Z,71.29
2023-04-16T17:52:09.517Z,71.04
2023-04-16T17:54:36.304Z,71.05
2023-04-16T17:57:03.116Z,71.67
2023-04-16T17:59:29.753Z,71.71
2023-04-16T18:01:56.813Z,71.61
2023-04-16T18:04:23.829Z,72.32
2023-04-16T18:06:50.783Z,72.54
2023-04-16T18:09:19.195Z,72.65
2023-04-16T18:11:45.983Z,72.43
2023-04-16T18:14:16.657Z,73.50
2023-04-16T18:16:43.445Z,73.26
2023-04-16T18:19:10.305Z,73.66
2023-04-16T18:21:36.921Z,73.20
2023-04-16T18:24:03.618Z,73.64
2023-04-16T18:26:31.193Z,73.64
2023-04-16T18:28:59.971Z,73.98
2023-04-16T18:31:27.168Z,74.13
2023-04-16T18:33:58.053Z,74.16
2023-04-16T18:36:27.002Z,74.18
2023-04-16T18:39:01.469Z,74.31
2023-04-16T18:41:41.782Z,74.59
2023-04-16T18:44:10.718Z,74.45
2023-04-16T18:46:37.421Z,75.08
2023-04-16T18:49:04.342Z,75.34
2023-04-16T18:51:31.114Z,75.01
2023-04-16T18:53:57.728Z,75.06
2023-04-16T18:56:24.763Z,75.30
2023-04-16T18:58:51.444Z,75.72
2023-04-16T19:01:18.345Z,75.35
2023-04-16T19:03:45.625Z,75.45
2023-04-16T19:06:12.365Z,75.92
2023-04-16T19:08:39.027Z,76.03
2023-04-16T19:11:05.859Z,75.84
2023-04-16T19:13:32.547Z,76.27
2023-04-16T19:16:00.637Z,76.26
2023-04-16T19:18:27.802Z,76.03
2023-04-16T19:21:01.814Z,75.98
2023-04-16T19:23:29.607Z,76.35
2023-04-16T19:25:56.957Z,76.23
2023-04-16T19:28:25.082Z,76.38
2023-04-16T19:30:52.830Z,76.20
2023-04-16T19:33:19.681Z,76.77
2023-04-16T19:35:47.261Z,76.54
2023-04-16T19:38:14.360Z,76.70
2023-04-16T19:40:43.941Z,77.00
2023-04-16T19:43:10.692Z,76.74
2023-04-16T19:45:43.240Z,77.00
2023-04-16T19:48:09.970Z,76.92
2023-04-16T19:50:39.396Z,76.75
2023-04-16T19:53:06.409Z,77.23
2023-04-16T19:55:33.082Z,76.92
2023-04-16T19:58:05.707Z,77.30
2023-04-16T20:00:42.487Z,77.04
2023-04-16T20:03:09.477Z,76.98
2023-04-16T20:05:36.442Z,77.28
2023-04-16T20:08:03.222Z,77.50
2023-04-16T20:10:31.546Z,77.36
2023-04-16T20:12:58.502Z,77.31
2023-04-16T20:15:25.201Z,77.07
2023-04-16T20:17:52.466Z,77.42
2023-04-16T20:20:19.132Z,77.33
2023-04-16T20:22:45.929Z,77.29
2023-04-16T20:25:14.433Z,77.69
2023-04-16T20:27:41.094Z,78.03
2023-04-16T20:30:08.417Z,77.91
2023-04-16T20:32:35.366Z,77.95
2023-04-16T20:35:02.338Z,77.68
2023-04-16T20:37:29.293Z,77.80
2023-04-16T20:39:56.524Z,77.57
2023-04-16T20:42:26.121Z,77.99
2023-04-16T20:44:56.282Z,78.15
2023-04-16T20:47:23.625Z,78.19
2023-04-16T20:49:50.607Z,78.23
2023-04-16T20:52:17.207Z,77.83
2023-04-16T20:54:44.400Z,77.71
2023-04-16T20:57:11.127Z,78.05
2023-04-16T20:59:37.834Z,78.47
2023-04-16T21:02:06.843Z,78.05
2023-04-16T21:04:33.580Z,78.17
2023-04-16T21:07:04.383Z,77.68
2023-04-16T21:09:31.724Z,78.00
2023-04-16T21:11:58.450Z,77.93
2023-04-16T21:14:25.268Z,78.10
2023-04-16T21:16:52.302Z,78.41
2023-04-16T21:19:18.957Z,78.10
2023-04-16T21:21:45.580Z,78.19
2023-04-16T22:13:36.760Z,79.00
2023-04-16T22:16:03.910Z,79.02
2023-04-16T22:18:33.786Z,78.81
2023-04-16T22:21:01.093Z,78.83
2023-04-16T22:23:27.823Z,78.68
2023-04-16T22:25:56.768Z,78.93
2023-04-16T22:28:23.870Z,78.94
2023-04-16T22:30:50.531Z,78.50
2023-04-16T22:33:17.342Z,78.83
2023-04-16T22:35:44.133Z,79.14
2023-04-16T22:38:10.981Z,78.93
2023-04-16T22:40:37.705Z,78.82
2023-04-16T22:43:05.000Z,79.43
2023-04-16T22:45:31.748Z,79.35
2023-04-16T22:47:58.539Z,78.88
2023-04-16T22:50:25.509Z,79.20
2023-04-16T22:52:52.123Z,79.20
2023-04-16T22:55:18.800Z,79.23
2023-04-16T22:57:45.464Z,79.22
2023-04-16T23:00:16.208Z,79.17
2023-04-16T23:02:43.594Z,79.25
2023-04-16T23:05:11.107Z,79.18
2023-04-16T23:07:37.782Z,79.24
2023-04-16T23:10:04.827Z,79.25
2023-04-16T23:12:31.797Z,79.24
2023-04-16T23:15:00.589Z,79.13
2023-04-16T23:17:28.035Z,79.54
2023-04-16T23:19:54.993Z,79.33
2023-04-16T23:22:21.737Z,79.17
2023-04-16T23:24:48.328Z,79.23
2023-04-16T23:27:15.062Z,79.09
2023-04-16T23:29:41.683Z,79.24
2023-04-16T23:32:08.283Z,79.50
2023-04-16T23:34:35.240Z,79.41
2023-04-16T23:37:01.853Z,79.01
2023-04-16T23:39:28.511Z,79.18
2023-04-16T23:41:55.456Z,79.68
2023-04-16T23:44:22.002Z,79.44
2023-04-16T23:46:48.727Z,79.61
2023-04-16T23:49:15.567Z,79.19
2023-04-16T23:51:42.142Z,79.29
2023-04-16T23:54:08.710Z,79.63
2023-04-16T23:56:35.731Z,79.22
2023-04-16T23:59:02.356Z,79.10
